createdAt,value
2018-04-25T00:02:02.111Z,8.93
2018-04-25T00:04:29.549Z,8.50
2018-04-25T00:06:56.979Z,8.00
2018-04-25T00:09:25.191Z,9.13
2018-04-25T00:11:52.661Z,8.50
2018-04-25T00:14:20.115Z,8.13
2018-04-25T00:16:47.588Z,9.55
2018-04-25T00:19:15.027Z,8.37
2018-04-25T00:21:42.505Z,7.70
2018-04-25T00:24:09.942Z,7.23
2018-04-25T00:26:37.400Z,7.27
2018-04-25T00:29:04.835Z,6.53
2018-04-25T00:31:32.259Z,6.63
2018-04-25T00:33:59.775Z,6.80
2018-04-25T00:36:27.203Z,6.73
2018-04-25T00:38:54.671Z,6.93
2018-04-25T00:41:22.100Z,7.60
2018-04-25T00:43:49.569Z,7.40
2018-04-25T00:46:16.996Z,7.30
2018-04-25T00:48:44.429Z,7.87
2018-04-25T00:51:12.630Z,8.03
2018-04-25T00:53:40.066Z,7.70
2018-04-25T00:56:08.255Z,8.03
2018-04-25T00:58:35.697Z,8.27
2018-04-25T01:01:03.947Z,8.50
2018-04-25T01:03:31.368Z,8.37
2018-04-25T01:05:58.823Z,8.20
2018-04-25T01:08:26.259Z,9.63
2018-04-25T01:10:53.763Z,9.67
2018-04-25T01:13:21.312Z,8.87
2018-04-25T01:15:48.750Z,9.57
2018-04-25T01:18:16.219Z,9.10
2018-04-25T01:20:43.687Z,9.20
2018-04-25T01:23:11.232Z,8.87
2018-04-25T01:25:40.354Z,9.03
2018-04-25T01:28:16.463Z,9.47
2018-04-25T01:30:45.502Z,8.30
2018-04-25T01:33:13.839Z,10.13
2018-04-25T01:35:41.320Z,8.20
2018-04-25T01:38:08.755Z,8.30
2018-04-25T01:40:36.235Z,6.50
2018-04-25T01:43:21.515Z,7.17
2018-04-25T01:49:05.195Z,7.43
2018-04-25T01:51:44.673Z,6.60
2018-04-25T01:54:24.863Z,5.90
2018-04-25T01:57:04.303Z,7.00
2018-04-25T01:59:43.831Z,6.07
2018-04-25T02:02:10.776Z,5.97
2018-04-25T02:04:38.220Z,6.30
2018-04-25T02:07:05.695Z,6.40
2018-04-25T02:09:33.170Z,6.30
2018-04-25T02:12:00.587Z,6.33
2018-04-25T02:14:28.019Z,6.03
2018-04-25T02:16:56.227Z,6.20
2018-04-25T02:19:23.675Z,6.30
2018-04-25T02:21:51.122Z,6.10
2018-04-25T02:24:19.314Z,6.73
2018-04-25T02:26:46.743Z,6.33
2018-04-25T02:29:14.987Z,7.13
2018-04-25T02:31:42.527Z,6.40
2018-04-25T02:34:09.987Z,6.43
2018-04-25T02:36:37.423Z,5.50
2018-04-25T02:39:04.849Z,6.47
2018-04-25T02:41:33.050Z,6.53
2018-04-25T02:44:00.531Z,7.07
2018-04-25T02:46:27.963Z,6.65
2018-04-25T02:48:55.398Z,6.53
2018-04-25T02:51:23.643Z,5.55
2018-04-25T02:53:51.071Z,4.57
2018-04-25T02:56:18.519Z,4.20
2018-04-25T02:58:45.964Z,3.60
2018-04-25T03:01:13.457Z,4.00
2018-04-25T03:03:40.891Z,4.53
2018-04-25T03:06:08.343Z,4.83
2018-04-25T03:08:35.783Z,5.13
2018-04-25T03:11:03.995Z,4.10
2018-04-25T03:13:31.459Z,4.07
2018-04-25T03:15:58.906Z,3.50
2018-04-25T03:18:26.390Z,3.70
2018-04-25T03:20:53.816Z,3.77
2018-04-25T03:23:21.250Z,3.27
2018-04-25T03:25:48.741Z,4.30
2018-04-25T03:28:16.209Z,4.87
2018-04-25T03:30:43.661Z,5.07
2018-04-25T03:33:11.110Z,4.57
2018-04-25T03:35:38.569Z,5.27
2018-04-25T03:38:06.002Z,5.50
2018-04-25T03:40:33.454Z,5.73
2018-04-25T03:43:00.941Z,5.77
2018-04-25T03:45:28.506Z,6.00
2018-04-25T03:47:55.918Z,5.90
2018-04-25T03:50:24.140Z,6.43
2018-04-25T03:52:51.591Z,7.13
2018-04-25T03:55:19.023Z,6.83
2018-04-25T03:57:46.511Z,7.57
2018-04-25T04:00:13.963Z,6.77
2018-04-25T04:02:41.407Z,7.30
2018-04-25T04:05:08.877Z,8.73
2018-04-25T04:07:36.330Z,8.40
2018-04-25T04:10:03.778Z,7.83
2018-04-25T04:12:31.220Z,8.03
2018-04-25T04:14:58.676Z,8.90
2018-04-25T04:17:26.094Z,9.23
2018-04-25T04:19:53.545Z,9.43
2018-04-25T04:22:20.962Z,9.97
2018-04-25T04:24:48.468Z,9.00
2018-04-25T04:27:16.599Z,11.77
2018-04-25T04:29:44.050Z,11.43
2018-04-25T04:32:11.515Z,10.80
2018-04-25T04:34:38.954Z,11.77
2018-04-25T04:37:06.383Z,10.40
2018-04-25T04:39:34.612Z,9.87
2018-04-25T04:42:02.045Z,10.27
2018-04-25T04:44:29.505Z,11.20
2018-04-25T04:46:57.003Z,12.57
2018-04-25T04:49:24.493Z,12.17
2018-04-25T04:51:52.709Z,11.03
2018-04-25T04:54:20.159Z,11.90
2018-04-25T04:56:47.609Z,12.70
2018-04-25T04:59:15.031Z,10.20
2018-04-25T05:01:43.269Z,10.43
2018-04-25T05:04:10.711Z,11.33
2018-04-25T05:06:38.178Z,10.00
2018-04-25T05:09:05.617Z,8.83
2018-04-25T05:11:33.095Z,9.37
2018-04-25T05:14:00.529Z,8.13
2018-04-25T05:16:27.997Z,10.03
2018-04-25T05:18:55.467Z,10.30
2018-04-25T05:21:22.883Z,8.77
2018-04-25T05:23:51.218Z,8.47
2018-04-25T05:26:18.673Z,6.53
2018-04-25T05:28:46.102Z,6.40
2018-04-25T05:31:13.585Z,5.53
2018-04-25T05:33:41.062Z,5.47
2018-04-25T05:36:09.305Z,5.23
2018-04-25T05:38:36.790Z,5.27
2018-04-25T05:41:04.217Z,4.10
2018-04-25T05:43:31.659Z,4.77
2018-04-25T05:45:59.182Z,5.00
2018-04-25T05:48:27.292Z,4.23
2018-04-25T05:50:54.796Z,4.37
2018-04-25T05:53:22.324Z,5.23
2018-04-25T05:55:49.790Z,3.90
2018-04-25T05:58:17.231Z,4.60
2018-04-25T06:00:44.699Z,4.03
2018-04-25T06:03:12.152Z,3.57
2018-04-25T06:05:39.652Z,3.73
2018-04-25T06:08:07.117Z,4.00
2018-04-25T06:10:35.379Z,5.00
2018-04-25T06:13:02.809Z,4.23
2018-04-25T06:15:30.240Z,4.30
2018-04-25T06:17:57.704Z,4.40
2018-04-25T06:20:25.180Z,4.40
2018-04-25T06:22:52.630Z,4.80
2018-04-25T06:25:20.105Z,4.87
2018-04-25T06:27:47.565Z,4.30
2018-04-25T06:30:15.007Z,5.40
2018-04-25T06:32:42.459Z,4.93
2018-04-25T06:35:09.924Z,4.77
2018-04-25T06:37:37.362Z,4.87
2018-04-25T06:40:04.820Z,5.43
2018-04-25T06:42:32.277Z,4.97
2018-04-25T06:44:59.785Z,5.20
2018-04-25T06:47:27.924Z,5.20
2018-04-25T06:49:55.378Z,5.60
2018-04-25T06:52:22.824Z,4.97
2018-04-25T06:54:50.251Z,5.30
2018-04-25T06:57:17.745Z,4.73
2018-04-25T06:59:45.219Z,4.60
2018-04-25T07:02:12.672Z,4.80
2018-04-25T07:04:40.221Z,5.67
2018-04-25T07:07:07.630Z,5.33
2018-04-25T07:09:35.845Z,4.53
2018-04-25T07:12:03.323Z,5.40
2018-04-25T07:14:30.759Z,4.70
2018-04-25T07:16:58.203Z,4.83
2018-04-25T07:19:25.642Z,4.67
2018-04-25T07:21:53.099Z,4.37
2018-04-25T07:24:24.495Z,3.80
2018-04-25T07:26:52.019Z,3.03
2018-04-25T07:29:19.471Z,3.63
2018-04-25T07:31:47.781Z,3.80
2018-04-25T07:34:15.195Z,3.80
2018-04-25T07:36:43.408Z,3.33
2018-04-25T07:39:10.880Z,3.30
2018-04-25T07:41:38.342Z,4.77
2018-04-25T07:44:05.735Z,4.37
2018-04-25T07:46:33.935Z,4.60
2018-04-25T07:49:01.419Z,4.03
2018-04-25T07:51:28.898Z,4.57
2018-04-25T07:53:56.447Z,3.97
2018-04-25T07:56:23.999Z,3.77
2018-04-25T07:58:51.446Z,4.40
2018-04-25T08:01:18.904Z,4.30
2018-04-25T08:03:46.383Z,4.43
2018-04-25T08:06:13.953Z,4.37
2018-04-25T08:08:41.500Z,3.80
2018-04-25T08:11:08.970Z,3.23
2018-04-25T08:13:48.451Z,3.10
2018-04-25T08:16:27.842Z,3.23
2018-04-25T08:19:07.280Z,3.20
2018-04-25T08:21:40.675Z,2.83
2018-04-25T08:24:08.112Z,2.33
2018-04-25T08:26:36.340Z,2.70
2018-04-25T08:29:03.787Z,2.17
2018-04-25T08:31:31.220Z,2.47
2018-04-25T08:33:58.654Z,2.63
2018-04-25T08:36:26.092Z,1.60
2018-04-25T08:38:53.547Z,1.77
2018-04-25T08:41:21.013Z,1.90
2018-04-25T08:43:48.438Z,2.07
2018-04-25T08:46:15.900Z,2.00
2018-04-25T08:48:43.350Z,1.43
2018-04-25T08:51:10.807Z,1.70
2018-04-25T08:53:38.235Z,1.80
2018-04-25T08:56:05.719Z,1.70
2018-04-25T08:58:33.160Z,1.70
2018-04-25T09:01:00.583Z,1.77
2018-04-25T09:03:28.819Z,1.20
2018-04-25T09:05:56.248Z,1.50
2018-04-25T09:08:23.695Z,1.73
2018-04-25T09:10:51.175Z,1.60
2018-04-25T09:13:18.736Z,1.70
2018-04-25T09:15:46.107Z,1.40
2018-04-25T09:18:13.559Z,1.53
2018-04-25T09:20:40.997Z,1.40
2018-04-25T09:23:08.461Z,1.80
2018-04-25T09:25:35.933Z,1.40
2018-04-25T09:28:03.361Z,1.63
2018-04-25T09:30:30.791Z,1.50
2018-04-25T09:32:59.006Z,1.47
2018-04-25T09:35:26.460Z,1.60
2018-04-25T09:37:53.920Z,1.25
2018-04-25T09:40:21.351Z,1.80
2018-04-25T09:42:48.861Z,2.00
2018-04-25T09:45:16.351Z,1.70
2018-04-25T09:47:44.587Z,1.73
2018-04-25T09:50:12.033Z,1.80
2018-04-25T09:52:39.490Z,1.70
2018-04-25T09:55:06.914Z,1.90
2018-04-25T09:57:34.449Z,2.10
2018-04-25T10:00:01.836Z,1.50
2018-04-25T10:02:33.277Z,2.27
2018-04-25T10:05:01.479Z,2.07
2018-04-25T10:07:28.958Z,1.73
2018-04-25T10:09:56.402Z,2.57
2018-04-25T10:12:23.870Z,2.00
2018-04-25T10:14:51.322Z,2.13
2018-04-25T10:17:19.000Z,2.30
2018-04-25T10:19:46.435Z,2.37
2018-04-25T10:22:13.901Z,2.00
2018-04-25T10:24:41.318Z,2.13
2018-04-25T10:27:08.771Z,2.20
2018-04-25T10:29:36.993Z,2.17
2018-04-25T10:32:04.521Z,2.90
2018-04-25T10:34:31.903Z,2.13
2018-04-25T10:36:59.363Z,2.53
2018-04-25T10:39:26.783Z,2.73
2018-04-25T10:41:54.215Z,2.77
2018-04-25T10:44:21.731Z,2.43
2018-04-25T10:46:49.176Z,3.23
2018-04-25T10:49:16.603Z,3.30
2018-04-25T10:51:44.844Z,2.97
2018-04-25T10:54:13.067Z,3.07
2018-04-25T10:56:40.491Z,3.67
2018-04-25T10:59:07.923Z,3.97
2018-04-25T11:01:36.122Z,4.27
2018-04-25T11:04:03.660Z,4.97
2018-04-25T11:06:31.160Z,5.20
2018-04-25T11:08:58.627Z,5.27
2018-04-25T11:11:26.073Z,6.20
2018-04-25T11:13:54.278Z,6.00
2018-04-25T11:16:21.721Z,6.30
2018-04-25T11:18:49.215Z,6.57
2018-04-25T11:21:16.638Z,6.57
2018-04-25T11:23:44.059Z,7.17
2018-04-25T11:26:11.571Z,6.43
2018-04-25T11:28:39.036Z,7.40
2018-04-25T11:31:06.468Z,7.40
2018-04-25T11:33:33.911Z,7.67
2018-04-25T11:36:01.347Z,7.87
2018-04-25T11:38:29.571Z,8.00
2018-04-25T11:40:57.020Z,8.77
2018-04-25T11:43:24.478Z,8.20
2018-04-25T11:45:51.911Z,8.97
2018-04-25T11:48:19.410Z,9.10
2018-04-25T11:50:46.842Z,9.33
2018-04-25T11:53:14.280Z,9.07
2018-04-25T11:55:41.719Z,9.00
2018-04-25T11:58:09.373Z,8.90
2018-04-25T12:00:36.835Z,8.20
2018-04-25T12:03:04.262Z,8.40
2018-04-25T12:05:31.700Z,8.20
2018-04-25T12:07:59.144Z,7.63
2018-04-25T12:10:26.582Z,6.97
2018-04-25T12:12:54.829Z,7.30
2018-04-25T12:15:22.286Z,5.87
2018-04-25T12:17:49.839Z,5.17
2018-04-25T12:20:17.267Z,5.67
2018-04-25T12:22:44.716Z,5.40
2018-04-25T12:25:12.174Z,5.13
2018-04-25T12:27:39.611Z,5.33
2018-04-25T12:30:07.047Z,6.00
2018-04-25T12:32:35.270Z,5.07
2018-04-25T12:35:02.735Z,4.40
2018-04-25T12:37:30.177Z,4.53
2018-04-25T12:39:57.682Z,3.70
2018-04-25T12:42:25.107Z,2.90
2018-04-25T12:44:52.565Z,2.73
2018-04-25T12:47:20.108Z,2.25
2018-04-25T12:49:47.540Z,1.93
2018-04-25T12:52:14.971Z,2.00
2018-04-25T12:54:42.487Z,2.30
2018-04-25T12:57:09.991Z,2.28
2018-04-25T12:59:37.423Z,2.10
2018-04-25T13:02:04.895Z,2.70
2018-04-25T13:04:32.319Z,2.33
2018-04-25T13:06:59.826Z,2.30
2018-04-25T13:09:27.339Z,2.43
2018-04-25T13:11:54.811Z,2.20
2018-04-25T13:14:22.260Z,2.30
2018-04-25T13:16:49.719Z,2.40
2018-04-25T13:19:21.823Z,2.07
2018-04-25T13:21:50.037Z,2.10
2018-04-25T13:24:17.475Z,2.07
2018-04-25T13:26:44.996Z,1.70
2018-04-25T13:29:12.431Z,1.80
2018-04-25T13:31:39.875Z,1.70
2018-04-25T13:34:07.348Z,1.83
2018-04-25T13:36:34.783Z,1.80
2018-04-25T13:39:02.260Z,2.00
2018-04-25T13:41:29.758Z,1.63
2018-04-25T13:43:57.216Z,1.80
2018-04-25T13:46:25.455Z,1.60
2018-04-25T13:48:52.898Z,1.97
2018-04-25T13:51:20.340Z,1.70
2018-04-25T13:53:47.785Z,1.30
2018-04-25T13:56:15.218Z,1.37
2018-04-25T13:58:43.444Z,1.47
2018-04-25T14:01:10.896Z,1.20
2018-04-25T14:03:38.315Z,1.27
2018-04-25T14:06:06.524Z,1.13
2018-04-25T14:08:33.948Z,1.20
2018-04-25T14:11:02.163Z,1.20
2018-04-25T14:13:29.661Z,1.52
2018-04-25T14:15:57.112Z,1.60
2018-04-25T14:18:24.551Z,1.40
2018-04-25T14:20:51.991Z,1.55
2018-04-25T14:23:19.447Z,1.67
2018-04-25T14:25:46.877Z,1.60
2018-04-25T14:28:15.100Z,1.30
2018-04-25T14:30:42.519Z,1.30
2018-04-25T14:33:09.989Z,1.60
2018-04-25T14:35:37.426Z,1.30
2018-04-25T14:38:05.616Z,1.40
2018-04-25T14:40:33.075Z,0.80
2018-04-25T14:43:00.532Z,1.10
2018-04-25T14:45:27.959Z,1.50
2018-04-25T14:47:56.179Z,1.17
2018-04-25T14:50:23.662Z,1.70
2018-04-25T14:52:52.636Z,1.60
2018-04-25T14:55:20.086Z,1.58
2018-04-25T14:57:47.532Z,1.40
2018-04-25T15:00:14.975Z,1.33
2018-04-25T15:02:42.402Z,1.30
2018-04-25T15:05:10.608Z,1.20
2018-04-25T15:07:38.092Z,1.60
2018-04-25T15:10:05.522Z,1.62
2018-04-25T15:12:32.956Z,1.40
2018-04-25T15:15:01.171Z,1.62
2018-04-25T15:17:28.615Z,1.70
2018-04-25T15:19:56.132Z,1.87
2018-04-25T15:22:23.600Z,1.70
2018-04-25T15:24:51.820Z,1.83
2018-04-25T15:27:19.284Z,2.25
2018-04-25T15:29:46.724Z,2.25
2018-04-25T15:32:14.306Z,2.67
2018-04-25T15:34:41.746Z,2.62
2018-04-25T15:37:09.155Z,2.90
2018-04-25T15:39:37.383Z,3.08
2018-04-25T15:42:04.824Z,2.65
2018-04-25T15:44:32.292Z,2.60
2018-04-25T15:46:59.712Z,2.30
2018-04-25T15:49:27.943Z,2.50
2018-04-25T15:51:55.487Z,2.55
2018-04-25T15:54:22.932Z,2.58
2018-04-25T15:56:50.409Z,2.60
2018-04-25T15:59:17.855Z,2.70
2018-04-25T16:01:45.288Z,2.58
2018-04-25T16:04:12.741Z,2.70
2018-04-25T16:06:40.975Z,2.42
2018-04-25T16:09:08.447Z,3.17
2018-04-25T16:11:35.888Z,2.78
2018-04-25T16:14:03.415Z,2.70
2018-04-25T16:16:30.897Z,2.80
2018-04-25T16:18:58.333Z,3.05
2018-04-25T16:21:25.790Z,2.67
2018-04-25T16:23:53.222Z,2.47
2018-04-25T16:26:20.668Z,3.05
2018-04-25T16:28:48.879Z,2.33
2018-04-25T16:31:16.323Z,2.80
2018-04-25T16:33:44.504Z,2.60
2018-04-25T16:36:12.066Z,2.73
2018-04-25T16:38:39.495Z,2.73
2018-04-25T16:41:06.909Z,2.87
2018-04-25T16:43:34.340Z,2.70
2018-04-25T16:46:01.775Z,2.70
2018-04-25T16:48:29.273Z,2.90
2018-04-25T16:50:56.827Z,3.13
2018-04-25T16:53:24.278Z,2.33
2018-04-25T16:55:51.735Z,2.30
2018-04-25T16:58:19.497Z,2.83
2018-04-25T17:00:46.960Z,2.67
2018-04-25T17:03:14.439Z,2.40
2018-04-25T17:05:41.897Z,2.10
2018-04-25T17:08:09.370Z,2.40
2018-04-25T17:10:36.917Z,2.70
2018-04-25T17:13:04.350Z,2.47
2018-04-25T17:15:31.812Z,1.80
2018-04-25T17:17:59.312Z,2.23
2018-04-25T17:20:27.871Z,2.20
2018-04-25T17:22:55.385Z,2.10
2018-04-25T17:25:22.775Z,2.27
2018-04-25T17:27:50.220Z,2.50
2018-04-25T17:30:17.695Z,2.30
2018-04-25T17:32:45.151Z,2.40
2018-04-25T17:35:12.613Z,2.20
2018-04-25T17:37:40.044Z,2.97
2018-04-25T17:40:07.627Z,2.20
2018-04-25T17:42:35.167Z,2.70
2018-04-25T17:45:02.646Z,2.47
2018-04-25T17:47:30.089Z,2.43
2018-04-25T17:49:57.531Z,2.37
2018-04-25T17:52:24.960Z,2.30
2018-04-25T17:54:52.399Z,2.20
2018-04-25T17:57:20.659Z,2.00
2018-04-25T17:59:48.090Z,2.47
2018-04-25T18:02:15.633Z,2.57
2018-04-25T18:04:43.290Z,2.07
2018-04-25T18:07:10.774Z,2.50
2018-04-25T18:09:38.223Z,2.20
2018-04-25T18:12:05.658Z,2.73
2018-04-25T18:14:33.190Z,2.70
2018-04-25T18:17:00.655Z,2.60
2018-04-25T18:19:28.875Z,2.50
2018-04-25T18:21:57.819Z,2.47
2018-04-25T18:24:25.963Z,2.57
2018-04-25T18:26:53.407Z,2.90
2018-04-25T18:29:20.926Z,2.37
2018-04-25T18:31:48.379Z,2.60
2018-04-25T18:34:15.803Z,2.50
2018-04-25T18:36:43.326Z,2.60
2018-04-25T18:39:10.760Z,2.77
2018-04-25T18:41:38.374Z,2.17
2018-04-25T18:44:05.796Z,2.20
2018-04-25T18:46:34.011Z,2.53
2018-04-25T18:49:01.458Z,2.33
2018-04-25T18:51:28.937Z,2.47
2018-04-25T18:53:56.368Z,2.80
2018-04-25T18:56:24.886Z,2.77
2018-04-25T18:58:52.333Z,2.77
2018-04-25T19:01:19.795Z,2.62
2018-04-25T19:03:47.355Z,3.60
2018-04-25T19:06:14.819Z,3.60
2018-04-25T19:08:42.275Z,2.63
2018-04-25T19:11:11.329Z,3.72
2018-04-25T19:13:38.782Z,3.40
2018-04-25T19:16:06.235Z,2.97
2018-04-25T19:18:33.725Z,3.60
2018-04-25T19:21:01.167Z,2.77
2018-04-25T19:23:28.607Z,2.23
2018-04-25T19:25:56.137Z,3.07
2018-04-25T19:28:23.559Z,3.33
2018-04-25T19:30:51.000Z,3.40
2018-04-25T19:33:18.594Z,4.00
2018-04-25T19:35:46.049Z,2.40
2018-04-25T19:38:13.483Z,2.73
2018-04-25T19:40:40.924Z,2.77
2018-04-25T19:43:08.491Z,3.33
2018-04-25T19:45:35.923Z,3.60
2018-04-25T19:48:04.123Z,3.00
2018-04-25T19:50:31.574Z,3.53
2018-04-25T19:52:59.041Z,3.80
2018-04-25T19:55:26.488Z,3.93
2018-04-25T19:57:53.924Z,3.53
2018-04-25T20:00:21.420Z,3.27
2018-04-25T20:02:48.872Z,3.80
2018-04-25T20:05:16.312Z,4.33
2018-04-25T20:07:43.754Z,4.30
2018-04-25T20:10:11.242Z,4.20
2018-04-25T20:12:38.675Z,5.55
2018-04-25T20:15:06.163Z,4.97
2018-04-25T20:17:33.695Z,4.63
2018-04-25T20:20:01.183Z,3.77
2018-04-25T20:22:28.860Z,3.70
2018-04-25T20:24:56.399Z,4.50
2018-04-25T20:27:23.879Z,5.20
2018-04-25T20:29:51.347Z,4.53
2018-04-25T20:32:18.798Z,4.47
2018-04-25T20:34:46.231Z,4.50
2018-04-25T20:37:13.707Z,4.67
2018-04-25T20:39:41.148Z,4.63
2018-04-25T20:42:08.588Z,4.73
2018-04-25T20:44:36.202Z,4.90
2018-04-25T20:47:04.410Z,5.37
2018-04-25T20:49:31.895Z,4.37
2018-04-25T20:52:00.136Z,4.60
2018-04-25T20:54:27.583Z,5.00
2018-04-25T20:56:55.913Z,5.20
2018-04-25T20:59:23.366Z,4.17
2018-04-25T21:01:50.819Z,4.00
2018-04-25T21:04:19.115Z,4.20
2018-04-25T21:06:46.563Z,4.93
2018-04-25T21:09:14.113Z,5.17
2018-04-25T21:11:41.541Z,5.70
2018-04-25T21:14:08.976Z,4.20
2018-04-25T21:16:37.174Z,4.70
2018-04-25T21:19:04.659Z,5.45
2018-04-25T21:21:32.207Z,5.87
2018-04-25T21:23:59.720Z,5.13
2018-04-25T21:26:27.120Z,5.85
2018-04-25T21:28:54.619Z,6.03
2018-04-25T21:31:22.857Z,5.77
2018-04-25T21:33:50.972Z,6.00
2018-04-25T21:36:18.814Z,5.23
2018-04-25T21:38:46.272Z,4.73
2018-04-25T21:41:14.398Z,5.67
2018-04-25T21:43:41.851Z,5.03
2018-04-25T21:46:09.386Z,4.87
2018-04-25T21:48:36.901Z,5.40
2018-04-25T21:51:04.367Z,5.10
2018-04-25T21:53:31.862Z,5.03
2018-04-25T21:56:00.064Z,5.30
2018-04-25T21:58:28.260Z,6.03
2018-04-25T22:00:55.747Z,7.83
2018-04-25T22:03:23.701Z,7.47
2018-04-25T22:05:51.179Z,6.90
2018-04-25T22:08:18.623Z,5.63
2018-04-25T22:10:46.073Z,4.70
2018-04-25T22:13:13.506Z,4.27
2018-04-25T22:15:40.939Z,6.70
2018-04-25T22:18:08.371Z,5.90
2018-04-25T22:20:35.798Z,7.73
2018-04-25T22:23:04.007Z,7.27
2018-04-25T22:25:31.467Z,5.03
2018-04-25T22:27:58.916Z,5.17
2018-04-25T22:30:26.359Z,5.07
2018-04-25T22:32:53.802Z,5.00
2018-04-25T22:35:22.015Z,5.83
2018-04-25T22:37:49.443Z,6.47
2018-04-25T22:40:16.895Z,6.53
2018-04-25T22:42:44.354Z,7.13
2018-04-25T22:45:11.888Z,4.83
2018-04-25T22:47:39.610Z,4.70
2018-04-25T22:50:07.808Z,4.27
2018-04-25T22:52:36.015Z,4.20
2018-04-25T22:55:03.444Z,4.87
2018-04-25T22:57:31.651Z,4.47
2018-04-25T22:59:59.130Z,2.70
2018-04-25T23:02:26.555Z,2.70
2018-04-25T23:04:53.980Z,2.47
2018-04-25T23:07:22.184Z,2.30
2018-04-25T23:09:49.616Z,2.33
2018-04-25T23:12:17.843Z,2.20
2018-04-25T23:14:45.279Z,2.77
2018-04-25T23:17:12.755Z,2.83
2018-04-25T23:19:40.199Z,2.63
2018-04-25T23:22:07.664Z,2.63
2018-04-25T23:24:35.105Z,3.17
2018-04-25T23:27:02.531Z,4.63
2018-04-25T23:29:30.741Z,3.67
2018-04-25T23:31:58.202Z,3.87
2018-04-25T23:34:25.646Z,4.40
2018-04-25T23:36:53.079Z,5.20
2018-04-25T23:39:21.308Z,4.70
2018-04-25T23:41:48.762Z,4.27
2018-04-25T23:44:16.218Z,5.07
2018-04-25T23:46:43.683Z,5.57
2018-04-25T23:49:11.136Z,5.13
2018-04-25T23:51:38.619Z,5.50
2018-04-25T23:54:06.143Z,6.00
2018-04-25T23:56:33.579Z,5.30
2018-04-25T23:59:01.007Z,6.27
